createdAt,value
2018-07-02T00:01:17.043Z,13.10
2018-07-02T00:03:45.432Z,13.10
2018-07-02T00:06:40.037Z,13.10
2018-07-02T00:09:08.465Z,13.10
2018-07-02T00:11:37.130Z,13.10
2018-07-02T00:14:06.741Z,13.00
2018-07-02T00:16:35.147Z,13.00
2018-07-02T00:19:03.504Z,13.00
2018-07-02T00:21:31.912Z,13.00
2018-07-02T00:24:00.276Z,13.00
2018-07-02T00:26:28.686Z,13.00
2018-07-02T00:28:57.048Z,12.90
2018-07-02T00:31:25.441Z,12.90
2018-07-02T00:33:53.830Z,12.70
2018-07-02T00:36:22.249Z,12.70
2018-07-02T00:38:50.618Z,12.70
2018-07-02T00:41:18.987Z,12.60
2018-07-02T00:43:47.439Z,12.60
2018-07-02T00:46:15.816Z,12.60
2018-07-02T00:48:44.182Z,12.50
2018-07-02T00:51:12.596Z,12.60
2018-07-02T00:53:41.102Z,12.60
2018-07-02T00:56:09.490Z,12.60
2018-07-02T00:58:37.876Z,12.70
2018-07-02T01:01:06.308Z,12.70
2018-07-02T01:03:34.731Z,12.60
2018-07-02T01:06:03.131Z,12.60
2018-07-02T01:08:31.531Z,12.60
2018-07-02T01:10:59.916Z,12.60
2018-07-02T01:13:28.307Z,12.50
2018-07-02T01:15:56.839Z,12.60
2018-07-02T01:18:25.235Z,12.50
2018-07-02T01:20:53.703Z,12.50
2018-07-02T01:23:22.068Z,12.40
2018-07-02T01:25:50.458Z,12.40
2018-07-02T01:28:18.878Z,12.30
2018-07-02T01:30:47.374Z,12.20
2018-07-02T01:33:15.998Z,12.20
2018-07-02T01:35:44.418Z,12.10
2018-07-02T01:38:12.801Z,12.00
2018-07-02T01:40:41.150Z,12.00
2018-07-02T01:43:09.570Z,12.00
2018-07-02T01:45:37.973Z,11.80
2018-07-02T01:48:06.383Z,11.80
2018-07-02T01:50:34.751Z,11.90
2018-07-02T01:53:03.127Z,11.90
2018-07-02T01:55:31.520Z,11.90
2018-07-02T01:57:59.911Z,12.00
2018-07-02T02:00:28.317Z,12.00
2018-07-02T02:05:25.344Z,12.00
2018-07-02T02:07:53.781Z,12.00
2018-07-02T02:10:22.760Z,12.00
2018-07-02T02:12:51.142Z,11.90
2018-07-02T02:15:19.571Z,11.80
2018-07-02T02:17:47.933Z,11.80
2018-07-02T02:20:16.321Z,11.70
2018-07-02T02:22:44.818Z,11.60
2018-07-02T02:25:13.193Z,11.60
2018-07-02T02:27:41.570Z,11.40
2018-07-02T02:30:10.036Z,11.20
2018-07-02T02:32:38.390Z,11.10
2018-07-02T02:35:07.029Z,11.00
2018-07-02T02:37:35.427Z,11.00
2018-07-02T02:40:04.569Z,10.90
2018-07-02T02:42:32.929Z,10.90
2018-07-02T02:45:01.330Z,10.90
2018-07-02T02:47:29.687Z,10.80
2018-07-02T02:49:58.083Z,10.70
2018-07-02T02:52:26.475Z,10.70
2018-07-02T02:54:54.873Z,10.60
2018-07-02T02:57:23.241Z,10.50
2018-07-02T02:59:51.647Z,10.60
2018-07-02T03:02:20.017Z,10.60
2018-07-02T03:04:48.404Z,10.50
2018-07-02T03:07:16.772Z,10.40
2018-07-02T03:09:45.203Z,10.40
2018-07-02T03:12:14.007Z,10.40
2018-07-02T03:14:42.432Z,10.40
2018-07-02T03:17:10.832Z,10.40
2018-07-02T03:19:39.208Z,10.50
2018-07-02T03:22:07.742Z,10.60
2018-07-02T03:24:36.136Z,10.70
2018-07-02T03:27:04.482Z,10.80
2018-07-02T03:29:32.876Z,10.80
2018-07-02T03:32:01.256Z,10.80
2018-07-02T03:34:29.612Z,10.80
2018-07-02T03:36:58.052Z,10.90
2018-07-02T03:39:26.436Z,10.90
2018-07-02T03:41:54.867Z,10.90
2018-07-02T03:44:24.043Z,11.10
2018-07-02T03:49:20.648Z,11.10
2018-07-02T03:51:49.027Z,11.10
2018-07-02T03:54:17.376Z,11.20
2018-07-02T03:56:45.824Z,11.40
2018-07-02T03:59:14.214Z,11.50
2018-07-02T04:01:42.629Z,11.60
2018-07-02T04:04:11.026Z,11.70
2018-07-02T04:06:39.444Z,11.80
2018-07-02T04:09:12.180Z,11.90
2018-07-02T04:11:40.622Z,11.90
2018-07-02T04:14:09.265Z,12.00
2018-07-02T04:16:37.823Z,12.00
2018-07-02T04:19:12.875Z,12.00
2018-07-02T04:21:42.993Z,11.90
2018-07-02T04:24:11.483Z,12.00
2018-07-02T04:26:41.679Z,12.10
2018-07-02T04:29:10.499Z,12.10
2018-07-02T04:31:38.883Z,12.20
2018-07-02T04:34:07.273Z,12.30
2018-07-02T04:36:35.641Z,12.40
2018-07-02T04:39:06.569Z,12.40
2018-07-02T04:41:34.973Z,12.50
2018-07-02T04:44:03.420Z,12.60
2018-07-02T04:46:31.807Z,12.80
2018-07-02T04:49:00.266Z,12.80
2018-07-02T04:51:28.643Z,13.00
2018-07-02T04:53:57.040Z,13.10
2018-07-02T04:56:25.457Z,13.20
2018-07-02T04:58:53.835Z,13.40
2018-07-02T05:01:22.246Z,13.50
2018-07-02T05:03:50.601Z,13.50
2018-07-02T05:06:18.953Z,13.60
2018-07-02T05:08:47.366Z,13.70
2018-07-02T05:11:15.743Z,13.80
2018-07-02T05:13:44.116Z,13.80
2018-07-02T05:16:12.570Z,14.00
2018-07-02T05:18:40.985Z,14.00
2018-07-02T05:21:09.334Z,14.10
2018-07-02T05:23:37.700Z,14.10
2018-07-02T05:26:06.170Z,14.30
2018-07-02T05:28:34.696Z,14.40
2018-07-02T05:31:03.116Z,14.50
2018-07-02T05:33:31.479Z,14.60
2018-07-02T05:35:59.864Z,14.70
2018-07-02T05:38:28.299Z,14.70
2018-07-02T05:40:56.680Z,14.80
2018-07-02T05:43:25.067Z,14.90
2018-07-02T05:45:53.449Z,15.00
2018-07-02T05:48:21.855Z,15.10
2018-07-02T05:50:51.188Z,15.20
2018-07-02T05:53:20.067Z,15.30
2018-07-02T05:55:48.454Z,15.40
2018-07-02T05:58:17.765Z,15.50
2018-07-02T06:00:46.334Z,15.60
2018-07-02T06:03:14.732Z,15.70
2018-07-02T06:05:43.118Z,15.70
2018-07-02T06:08:11.498Z,15.80
2018-07-02T06:10:39.905Z,15.90
2018-07-02T06:13:08.329Z,16.00
2018-07-02T06:15:36.712Z,16.10
2018-07-02T06:18:05.092Z,16.20
2018-07-02T06:20:33.532Z,16.30
2018-07-02T06:23:01.973Z,16.20
2018-07-02T06:25:30.357Z,16.40
2018-07-02T06:27:58.723Z,16.50
2018-07-02T06:30:27.141Z,16.50
2018-07-02T06:32:55.508Z,16.60
2018-07-02T06:35:23.898Z,16.60
2018-07-02T06:37:52.324Z,16.80
2018-07-02T06:40:21.566Z,16.80
2018-07-02T06:42:50.018Z,16.80
2018-07-02T06:45:18.426Z,16.80
2018-07-02T06:47:46.827Z,16.80
2018-07-02T06:50:15.286Z,17.00
2018-07-02T06:52:43.661Z,17.10
2018-07-02T06:55:12.065Z,17.20
2018-07-02T06:57:40.420Z,17.40
2018-07-02T07:00:08.782Z,17.40
2018-07-02T07:02:37.181Z,17.40
2018-07-02T07:05:05.669Z,17.40
2018-07-02T07:07:34.018Z,17.50
2018-07-02T07:10:02.384Z,17.60
2018-07-02T07:12:30.718Z,17.70
2018-07-02T07:14:59.124Z,17.80
2018-07-02T07:17:27.557Z,17.90
2018-07-02T07:19:55.935Z,18.00
2018-07-02T07:22:24.312Z,18.00
2018-07-02T07:24:52.657Z,17.90
2018-07-02T07:27:21.012Z,18.10
2018-07-02T07:29:49.376Z,18.30
2018-07-02T07:32:17.716Z,18.40
2018-07-02T07:34:46.233Z,18.40
2018-07-02T07:37:14.567Z,18.50
2018-07-02T07:39:42.972Z,18.60
2018-07-02T07:42:11.327Z,18.70
2018-07-02T07:44:39.729Z,18.80
2018-07-02T07:47:08.126Z,18.90
2018-07-02T07:49:36.457Z,19.00
2018-07-02T07:52:05.006Z,19.10
2018-07-02T07:54:33.458Z,19.30
2018-07-02T07:57:01.836Z,19.40
2018-07-02T07:59:30.224Z,19.50
2018-07-02T08:01:58.665Z,19.50
2018-07-02T08:04:27.010Z,19.50
2018-07-02T08:06:55.405Z,19.60
2018-07-02T08:09:23.772Z,19.60
2018-07-02T08:11:52.137Z,19.70
2018-07-02T08:14:20.524Z,19.70
2018-07-02T08:16:48.938Z,19.80
2018-07-02T08:19:17.379Z,20.00
2018-07-02T08:21:45.771Z,20.10
2018-07-02T08:24:14.126Z,20.30
2018-07-02T08:26:42.533Z,20.30
2018-07-02T08:29:10.917Z,20.40
2018-07-02T08:31:39.281Z,20.50
2018-07-02T08:34:07.729Z,20.60
2018-07-02T08:36:36.207Z,20.70
2018-07-02T08:39:07.856Z,20.80
2018-07-02T08:41:36.223Z,21.00
2018-07-02T08:44:05.325Z,21.10
2018-07-02T08:46:33.751Z,21.30
2018-07-02T08:49:02.185Z,21.30
2018-07-02T08:51:30.870Z,21.20
2018-07-02T08:53:59.277Z,21.30
2018-07-02T08:56:27.718Z,21.40
2018-07-02T08:58:56.064Z,21.50
2018-07-02T09:01:24.500Z,21.70
2018-07-02T09:03:52.885Z,21.90
2018-07-02T09:06:21.402Z,22.00
2018-07-02T09:08:49.756Z,22.10
2018-07-02T09:11:18.149Z,22.20
2018-07-02T09:13:46.511Z,22.40
2018-07-02T09:16:14.930Z,22.70
2018-07-02T09:18:43.309Z,23.00
2018-07-02T09:21:11.660Z,23.30
2018-07-02T09:23:40.035Z,23.20
2018-07-02T09:26:08.431Z,23.30
2018-07-02T09:28:36.822Z,23.30
2018-07-02T09:31:05.226Z,23.50
2018-07-02T09:33:33.604Z,23.50
2018-07-02T09:36:02.024Z,23.50
2018-07-02T09:38:30.380Z,23.70
2018-07-02T09:40:58.756Z,23.80
2018-07-02T09:43:27.157Z,24.10
2018-07-02T09:45:55.637Z,24.50
2018-07-02T09:48:24.019Z,24.40
2018-07-02T09:50:52.444Z,24.30
2018-07-02T09:53:20.828Z,24.50
2018-07-02T09:55:49.199Z,24.60
2018-07-02T09:58:18.089Z,24.30
2018-07-02T10:00:46.369Z,24.10
2018-07-02T10:03:14.736Z,23.90
2018-07-02T10:05:43.134Z,23.70
2018-07-02T10:08:11.992Z,23.20
2018-07-02T10:10:40.393Z,23.20
2018-07-02T10:13:08.800Z,23.20
2018-07-02T10:15:37.221Z,23.40
2018-07-02T10:18:05.669Z,23.50
2018-07-02T10:20:34.066Z,23.50
2018-07-02T10:23:02.874Z,23.60
2018-07-02T10:25:31.454Z,23.50
2018-07-02T10:27:59.809Z,23.90
2018-07-02T10:30:28.204Z,24.50
2018-07-02T10:32:56.573Z,24.40
2018-07-02T10:35:25.073Z,24.60
2018-07-02T10:37:53.459Z,24.80
2018-07-02T10:40:21.886Z,25.00
2018-07-02T10:42:50.269Z,24.80
2018-07-02T10:45:18.678Z,24.90
2018-07-02T10:47:47.288Z,24.70
2018-07-02T10:50:15.738Z,24.60
2018-07-02T10:52:46.301Z,24.90
2018-07-02T10:55:14.697Z,25.30
2018-07-02T10:57:43.077Z,25.50
2018-07-02T11:00:12.532Z,25.50
2018-07-02T11:02:40.942Z,25.70
2018-07-02T11:05:09.311Z,25.60
2018-07-02T11:07:37.677Z,25.70
2018-07-02T11:10:06.249Z,25.70
2018-07-02T11:12:34.607Z,25.50
2018-07-02T11:15:03.064Z,25.30
2018-07-02T11:17:31.420Z,24.50
2018-07-02T11:19:59.785Z,24.30
2018-07-02T11:22:29.253Z,24.40
2018-07-02T11:24:57.623Z,24.70
2018-07-02T11:27:25.951Z,25.20
2018-07-02T11:29:54.319Z,25.60
2018-07-02T11:32:22.833Z,26.20
2018-07-02T11:34:51.291Z,26.30
2018-07-02T11:37:19.682Z,26.10
2018-07-02T11:39:48.080Z,26.00
2018-07-02T11:42:16.455Z,25.90
2018-07-02T11:44:44.845Z,26.00
2018-07-02T11:47:13.408Z,26.20
2018-07-02T11:49:43.733Z,26.40
2018-07-02T11:52:12.205Z,26.60
2018-07-02T11:54:40.634Z,26.60
2018-07-02T11:57:08.965Z,27.10
2018-07-02T11:59:37.388Z,27.40
2018-07-02T12:02:05.845Z,27.60
2018-07-02T12:04:35.140Z,26.90
2018-07-02T12:07:03.631Z,26.30
2018-07-02T12:09:32.008Z,26.00
2018-07-02T12:12:00.388Z,25.90
2018-07-02T12:14:28.874Z,25.90
2018-07-02T12:16:57.314Z,26.10
2018-07-02T12:19:25.639Z,26.00
2018-07-02T12:21:54.048Z,25.90
2018-07-02T12:24:22.431Z,25.60
2018-07-02T12:26:50.837Z,25.50
2018-07-02T12:29:19.202Z,25.40
2018-07-02T12:31:47.585Z,25.70
2018-07-02T12:34:15.947Z,26.00
2018-07-02T12:36:44.657Z,26.40
2018-07-02T12:39:14.259Z,26.60
2018-07-02T12:41:43.281Z,26.40
2018-07-02T12:44:13.280Z,26.20
2018-07-02T12:46:42.137Z,25.40
2018-07-02T12:49:10.794Z,25.80
2018-07-02T12:51:40.358Z,26.00
2018-07-02T12:54:12.040Z,26.00
2018-07-02T12:56:40.459Z,25.70
2018-07-02T12:59:10.185Z,25.70
2018-07-02T13:01:38.581Z,25.70
2018-07-02T13:04:06.984Z,25.60
2018-07-02T13:06:35.364Z,25.60
2018-07-02T13:09:05.979Z,25.50
2018-07-02T13:11:34.348Z,25.50
2018-07-02T13:14:02.765Z,25.50
2018-07-02T13:16:31.567Z,25.50
2018-07-02T13:18:59.924Z,26.10
2018-07-02T13:21:28.361Z,26.60
2018-07-02T13:23:56.700Z,27.20
2018-07-02T13:26:25.095Z,27.50
2018-07-02T13:28:53.477Z,27.80
2018-07-02T13:31:21.857Z,28.00
2018-07-02T13:33:50.261Z,28.30
2018-07-02T13:38:46.815Z,28.20
2018-07-02T13:41:15.165Z,27.50
2018-07-02T13:43:43.538Z,27.30
2018-07-02T13:46:11.997Z,27.20
2018-07-02T13:48:40.437Z,27.00
2018-07-02T13:51:08.833Z,26.50
2018-07-02T13:53:37.208Z,25.70
2018-07-02T13:56:06.224Z,25.40
2018-07-02T13:58:34.818Z,25.40
2018-07-02T14:01:03.273Z,25.50
2018-07-02T14:03:31.612Z,25.50
2018-07-02T14:05:59.958Z,25.60
2018-07-02T14:08:28.393Z,26.00
2018-07-02T14:10:56.796Z,26.60
2018-07-02T14:13:25.189Z,26.80
2018-07-02T14:15:53.845Z,26.80
2018-07-02T14:18:22.286Z,27.00
2018-07-02T14:20:50.626Z,27.10
2018-07-02T14:23:19.044Z,27.30
2018-07-02T14:25:47.394Z,27.00
2018-07-02T14:28:15.778Z,26.90
2018-07-02T14:30:44.641Z,26.60
2018-07-02T14:33:13.036Z,26.40
2018-07-02T14:35:41.377Z,26.50
2018-07-02T14:38:09.799Z,26.90
2018-07-02T14:40:38.241Z,27.10
2018-07-02T14:43:06.914Z,27.20
2018-07-02T14:45:35.424Z,27.60
2018-07-02T14:48:03.630Z,27.90
2018-07-02T14:50:32.063Z,28.10
2018-07-02T14:53:00.396Z,28.00
2018-07-02T14:55:28.746Z,27.50
2018-07-02T14:57:57.103Z,27.20
2018-07-02T15:00:25.464Z,27.30
2018-07-02T15:02:53.830Z,27.70
2018-07-02T15:05:22.281Z,27.90
2018-07-02T15:07:50.874Z,28.30
2018-07-02T15:10:19.351Z,28.50
2018-07-02T15:12:47.776Z,28.30
2018-07-02T15:15:16.189Z,28.20
2018-07-02T15:17:44.524Z,27.60
2018-07-02T15:20:12.967Z,27.90
2018-07-02T15:22:41.366Z,27.80
2018-07-02T15:25:09.811Z,27.70
2018-07-02T15:27:38.182Z,27.70
2018-07-02T15:30:06.690Z,27.80
2018-07-02T15:32:35.096Z,28.00
2018-07-02T15:35:03.760Z,27.90
2018-07-02T15:37:32.139Z,27.70
2018-07-02T15:40:00.608Z,27.50
2018-07-02T15:42:28.948Z,27.20
2018-07-02T15:44:57.335Z,27.20
2018-07-02T15:47:25.662Z,27.10
2018-07-02T15:49:54.034Z,27.00
2018-07-02T15:52:22.371Z,27.10
2018-07-02T15:54:50.745Z,27.00
2018-07-02T15:57:19.106Z,26.90
2018-07-02T15:59:47.466Z,26.40
2018-07-02T16:02:16.254Z,26.20
2018-07-02T16:07:18.626Z,26.20
2018-07-02T16:09:47.006Z,26.30
2018-07-02T16:12:15.676Z,26.40
2018-07-02T16:14:44.044Z,26.50
2018-07-02T16:17:12.486Z,26.30
2018-07-02T16:19:40.861Z,25.90
2018-07-02T16:22:09.224Z,25.80
2018-07-02T16:24:37.594Z,25.80
2018-07-02T16:27:05.977Z,25.70
2018-07-02T16:29:34.391Z,25.70
2018-07-02T16:32:02.721Z,25.70
2018-07-02T16:34:31.066Z,25.70
2018-07-02T16:36:59.435Z,25.60
2018-07-02T16:39:28.512Z,25.50
2018-07-02T16:41:56.870Z,25.60
2018-07-02T16:44:25.342Z,25.60
2018-07-02T16:46:53.831Z,25.50
2018-07-02T16:49:22.213Z,25.50
2018-07-02T16:51:50.639Z,25.50
2018-07-02T16:54:18.993Z,25.60
2018-07-02T16:56:48.290Z,25.70
2018-07-02T16:59:16.676Z,25.70
2018-07-02T17:01:45.123Z,25.70
2018-07-02T17:04:13.802Z,25.50
2018-07-02T17:06:42.192Z,25.50
2018-07-02T17:09:12.109Z,25.50
2018-07-02T17:11:40.906Z,25.30
2018-07-02T17:14:09.991Z,25.20
2018-07-02T17:16:38.972Z,25.30
2018-07-02T17:19:07.464Z,25.30
2018-07-02T17:21:35.836Z,25.20
2018-07-02T17:24:04.332Z,25.10
2018-07-02T17:26:32.752Z,25.00
2018-07-02T17:29:01.377Z,24.90
2018-07-02T17:31:29.764Z,24.90
2018-07-02T17:33:58.145Z,24.90
2018-07-02T17:36:26.572Z,24.90
2018-07-02T17:38:54.982Z,24.90
2018-07-02T17:41:23.345Z,24.90
2018-07-02T17:43:51.812Z,24.70
2018-07-02T17:46:20.185Z,24.70
2018-07-02T17:48:49.208Z,24.70
2018-07-02T17:51:17.549Z,24.60
2018-07-02T17:53:45.943Z,24.60
2018-07-02T17:56:14.387Z,24.50
2018-07-02T17:58:42.881Z,24.40
2018-07-02T18:01:11.295Z,24.30
2018-07-02T18:03:39.722Z,24.20
2018-07-02T18:06:08.081Z,24.10
2018-07-02T18:08:36.458Z,24.10
2018-07-02T18:11:04.868Z,24.10
2018-07-02T18:13:33.257Z,24.00
2018-07-02T18:16:01.633Z,24.00
2018-07-02T18:18:30.051Z,23.90
2018-07-02T18:20:58.432Z,23.90
2018-07-02T18:23:26.864Z,24.00
2018-07-02T18:25:55.330Z,24.00
2018-07-02T18:28:23.700Z,24.00
2018-07-02T18:30:52.110Z,24.00
2018-07-02T18:33:20.516Z,23.80
2018-07-02T18:35:48.920Z,23.80
2018-07-02T18:38:17.294Z,23.70
2018-07-02T18:43:14.930Z,23.50
2018-07-02T18:45:43.325Z,23.50
2018-07-02T18:48:11.779Z,23.40
2018-07-02T18:50:40.239Z,23.30
2018-07-02T18:53:08.689Z,23.30
2018-07-02T18:55:37.105Z,23.20
2018-07-02T18:58:05.848Z,23.10
2018-07-02T19:00:34.248Z,23.10
2018-07-02T19:03:02.646Z,22.90
2018-07-02T19:05:31.068Z,22.80
2018-07-02T19:07:59.457Z,22.80
2018-07-02T19:10:27.982Z,22.70
2018-07-02T19:12:56.449Z,22.60
2018-07-02T19:15:24.937Z,22.50
2018-07-02T19:17:53.334Z,22.40
2018-07-02T19:20:21.744Z,22.30
2018-07-02T19:22:50.103Z,22.20
2018-07-02T19:25:18.473Z,22.10
2018-07-02T19:27:46.845Z,22.00
2018-07-02T19:30:15.274Z,22.00
2018-07-02T19:32:43.685Z,22.00
2018-07-02T19:35:12.095Z,21.80
2018-07-02T19:37:40.489Z,21.70
2018-07-02T19:40:08.926Z,21.70
2018-07-02T19:42:37.282Z,21.60
2018-07-02T19:45:06.081Z,21.60
2018-07-02T19:47:34.442Z,21.50
2018-07-02T19:50:02.822Z,21.50
2018-07-02T19:52:31.216Z,21.40
2018-07-02T19:54:59.601Z,21.30
2018-07-02T19:57:28.024Z,21.30
2018-07-02T19:59:56.446Z,21.20
2018-07-02T20:02:25.472Z,21.20
2018-07-02T20:04:53.943Z,21.20
2018-07-02T20:07:22.342Z,21.10
2018-07-02T20:09:50.723Z,21.00
2018-07-02T20:14:47.515Z,20.90
2018-07-02T20:17:15.958Z,20.90
2018-07-02T20:19:44.306Z,20.90
2018-07-02T20:22:12.666Z,20.80
2018-07-02T20:24:41.076Z,20.70
2018-07-02T20:27:09.529Z,20.60
2018-07-02T20:29:37.865Z,20.50
2018-07-02T20:32:06.224Z,20.60
2018-07-02T20:34:34.586Z,20.50
2018-07-02T20:37:03.014Z,20.50
2018-07-02T20:39:31.384Z,20.40
2018-07-02T20:41:59.764Z,20.40
2018-07-02T20:44:28.220Z,20.30
2018-07-02T20:46:56.579Z,20.30
2018-07-02T20:49:24.942Z,20.30
2018-07-02T20:51:53.705Z,20.20
2018-07-02T20:54:22.097Z,20.10
2018-07-02T20:56:50.501Z,20.10
2018-07-02T20:59:18.891Z,19.90
2018-07-02T21:01:47.337Z,19.90
2018-07-02T21:04:16.656Z,19.90
2018-07-02T21:06:45.098Z,19.80
2018-07-02T21:09:13.475Z,19.70
2018-07-02T21:11:41.898Z,19.70
2018-07-02T21:14:10.265Z,19.60
2018-07-02T21:16:38.652Z,19.60
2018-07-02T21:19:07.033Z,19.50
2018-07-02T21:21:35.410Z,19.40
2018-07-02T21:24:03.813Z,19.30
2018-07-02T21:26:32.214Z,19.20
2018-07-02T21:29:00.631Z,19.20
2018-07-02T21:31:28.985Z,19.10
2018-07-02T21:33:57.339Z,19.10
2018-07-02T21:36:25.755Z,19.00
2018-07-02T21:38:54.308Z,19.00
2018-07-02T21:41:22.857Z,18.90
2018-07-02T21:43:51.237Z,18.90
2018-07-02T21:46:19.569Z,18.90
2018-07-02T21:48:47.932Z,18.80
2018-07-02T21:51:16.922Z,18.70
2018-07-02T21:53:45.307Z,18.70
2018-07-02T21:56:13.636Z,18.60
2018-07-02T21:58:42.038Z,18.60
2018-07-02T22:01:10.421Z,18.50
2018-07-02T22:03:38.800Z,18.50
2018-07-02T22:06:07.255Z,18.50
2018-07-02T22:08:35.626Z,18.50
2018-07-02T22:11:04.023Z,18.40
2018-07-02T22:13:32.448Z,18.40
2018-07-02T22:16:00.953Z,18.40
2018-07-02T22:18:29.332Z,18.30
2018-07-02T22:20:57.712Z,18.30
2018-07-02T22:23:26.433Z,18.30
2018-07-02T22:25:54.790Z,18.20
2018-07-02T22:28:23.138Z,18.10
2018-07-02T22:30:51.540Z,18.10
2018-07-02T22:33:19.905Z,18.00
2018-07-02T22:35:48.292Z,17.90
2018-07-02T22:38:16.668Z,17.80
2018-07-02T22:40:45.027Z,17.80
2018-07-02T22:43:13.454Z,17.70
2018-07-02T22:45:41.820Z,17.70
2018-07-02T22:48:10.197Z,17.60
2018-07-02T22:50:38.636Z,17.60
2018-07-02T22:53:07.165Z,17.50
2018-07-02T22:55:47.136Z,17.40
2018-07-02T22:58:15.491Z,17.40
2018-07-02T23:00:43.876Z,17.30
2018-07-02T23:03:12.225Z,17.30
2018-07-02T23:05:40.586Z,17.30
2018-07-02T23:08:08.944Z,17.20
2018-07-02T23:10:37.401Z,17.20
2018-07-02T23:13:06.796Z,17.20
2018-07-02T23:15:36.009Z,17.10
2018-07-02T23:18:04.392Z,17.00
2018-07-02T23:20:32.875Z,17.00
2018-07-02T23:23:02.584Z,16.80
2018-07-02T23:25:31.266Z,16.50
2018-07-02T23:28:00.742Z,16.20
2018-07-02T23:30:30.167Z,16.00
2018-07-02T23:32:58.834Z,15.90
2018-07-02T23:35:28.119Z,15.70
2018-07-02T23:38:02.811Z,15.70
2018-07-02T23:40:31.199Z,15.60
2018-07-02T23:42:59.641Z,15.60
2018-07-02T23:45:27.996Z,15.60
2018-07-02T23:47:56.331Z,15.60
2018-07-02T23:50:24.704Z,15.60
2018-07-02T23:52:53.054Z,15.60
2018-07-02T23:55:21.424Z,15.60
2018-07-02T23:57:50.554Z,15.60
